Time;durP1;ratioP1;P1;durP2;ratioP2;P2;SDS_P1;SDS_P2;PMS_P1;PMS_P2;Temp;Humidity;BMP_temperature;BMP_pressure;BME280_temperature;BME280_humidity;BME280_pressure;Samples;Min_cycle;Max_cycle;Signal;HPM_P1;HPM_P2
2021/12/02 00:01:07;;;;;;;9.10;1.40;;;;;;;-146.64;100.00;39675.50;5058870;28;20032;-77
2021/12/02 00:03:34;;;;;;;12.43;1.33;;;;;;;-146.64;100.00;39685.72;5069369;28;20040;-77
2021/12/02 00:06:00;;;;;;;8.23;1.02;;;;;;;-146.64;100.00;39612.03;5064526;28;20021;-77
2021/12/02 00:08:25;;;;;;;6.55;1.15;;;;;;;-146.64;100.00;39706.19;5067978;28;20104;-77
2021/12/02 00:10:51;;;;;;;8.82;1.05;;;;;;;-146.64;100.00;39708.25;5057200;28;20024;-78
2021/12/02 00:13:21;;;;;;;6.15;1.10;;;;;;;-146.64;100.00;39648.88;5072934;28;20437;-77
2021/12/02 00:15:59;;;;;;;6.40;1.20;;;;;;;-146.64;100.00;39724.63;5078737;28;20131;-77
2021/12/02 00:21:04;;;;;;;11.32;1.42;;;;;;;-146.64;100.00;39706.19;5061300;28;20011;-77
2021/12/02 00:23:37;;;;;;;8.52;1.15;;;;;;;-146.64;100.00;39663.22;5081063;28;20036;-77
2021/12/02 00:26:15;;;;;;;14.45;2.17;;;;;;;-146.64;100.00;39669.34;5089246;28;20099;-77
2021/12/02 00:28:41;;;;;;;6.97;1.10;;;;;;;-146.64;100.00;39601.81;5063522;28;20020;-77
2021/12/02 00:31:15;;;;;;;8.38;2.25;;;;;;;-146.64;100.00;39636.59;5063861;28;20077;-78
2021/12/02 00:33:45;;;;;;;7.50;1.30;;;;;;;-146.64;100.00;39571.09;5093678;28;20027;-77
2021/12/02 00:36:27;;;;;;;5.38;1.30;;;;;;;-146.64;100.00;39550.63;5035116;28;20484;-77
2021/12/02 00:38:53;;;;;;;14.80;1.67;;;;;;;-146.64;100.00;39599.75;5056314;28;20020;-76
2021/12/02 00:41:21;;;;;;;8.95;1.58;;;;;;;-146.64;100.00;39626.38;5064469;28;20039;-76
2021/12/02 00:43:49;;;;;;;12.02;1.65;;;;;;;-146.64;100.00;39648.88;5077009;28;20055;-77
2021/12/02 00:46:17;;;;;;;6.43;1.48;;;;;;;-146.64;100.00;39628.41;5071142;28;20466;-77
2021/12/02 00:48:43;;;;;;;7.43;1.67;;;;;;;-146.64;100.00;39632.50;5057501;28;20048;-77
2021/12/02 00:51:11;;;;;;;13.65;2.05;;;;;;;-146.64;100.00;39659.13;5075944;28;20365;-78
2021/12/02 00:53:38;;;;;;;12.50;1.50;;;;;;;-146.64;100.00;39648.88;5072529;28;20021;-78
2021/12/02 00:56:07;;;;;;;20.55;1.73;;;;;;;-146.64;100.00;39571.09;5088065;28;20554;-77
2021/12/02 00:58:33;;;;;;;11.70;2.45;;;;;;;-146.64;100.00;39636.59;5063514;28;20033;-77
2021/12/02 01:01:00;;;;;;;7.97;1.53;;;;;;;-146.64;100.00;39657.06;5056330;28;20056;-77
2021/12/02 01:03:30;;;;;;;16.70;1.48;;;;;;;-146.64;100.00;39626.38;5070882;28;20067;-77
2021/12/02 01:05:56;;;;;;;6.70;1.27;;;;;;;-146.64;100.00;39616.13;5082388;28;20058;-77
2021/12/02 01:08:21;;;;;;;7.10;1.50;;;;;;;-146.64;100.00;39624.31;5063551;28;20025;-77
2021/12/02 01:10:47;;;;;;;5.72;1.35;;;;;;;-146.64;100.00;39636.59;5067272;28;20025;-77
2021/12/02 01:13:13;;;;;;;5.05;1.20;;;;;;;-146.64;100.00;39616.13;5057296;28;20033;-78
2021/12/02 01:15:39;;;;;;;7.53;1.25;;;;;;;-146.64;100.00;39640.69;5071293;28;20102;-77
2021/12/02 01:18:04;;;;;;;7.95;1.98;;;;;;;-146.64;100.00;39628.41;5071655;28;20028;-78
2021/12/02 01:20:31;;;;;;;16.90;1.77;;;;;;;-146.64;100.00;39636.59;5050653;28;20056;-78
2021/12/02 01:22:58;;;;;;;8.68;1.85;;;;;;;-146.64;100.00;39620.22;5051096;28;20025;-77
2021/12/02 01:25:24;;;;;;;19.98;2.08;;;;;;;-146.64;100.00;39624.31;5073227;28;20086;-77
2021/12/02 01:27:51;;;;;;;8.85;1.77;;;;;;;-146.64;100.00;39663.22;5065694;28;20460;-77
2021/12/02 01:30:18;;;;;;;13.77;1.48;;;;;;;-146.64;100.00;39667.31;5074164;28;20040;-77
2021/12/02 01:32:43;;;;;;;;;;;;;;;-146.64;100.00;39650.94;5064693;28;20037;-77
2021/12/02 01:35:09;;;;;;;13.60;1.40;;;;;;;-146.64;100.00;39628.41;5086353;28;19931;-78
2021/12/02 01:37:34;;;;;;;9.95;1.73;;;;;;;-146.64;100.00;39618.19;5054764;28;20111;-77
2021/12/02 01:40:01;;;;;;;10.25;1.40;;;;;;;-146.64;100.00;39554.72;5055347;28;20507;-76
2021/12/02 01:42:28;;;;;;;5.65;1.40;;;;;;;-146.64;100.00;39605.91;5067116;28;20029;-77
2021/12/02 01:44:56;;;;;;;9.68;1.00;;;;;;;-146.64;100.00;39607.94;5056137;28;20033;-77
2021/12/02 01:47:25;;;;;;;5.00;0.90;;;;;;;-146.64;100.00;39591.56;5071122;28;20028;-77
2021/12/02 01:49:58;;;;;;;7.88;1.35;;;;;;;-146.64;100.00;39579.28;5043210;28;20036;-79
2021/12/02 01:52:33;;;;;;;7.45;1.27;;;;;;;-146.64;100.00;39601.81;5049083;28;20028;-77
2021/12/02 01:55:10;;;;;;;6.15;1.02;;;;;;;-146.64;100.00;39538.34;5076728;28;20024;-77
2021/12/02 01:57:46;;;;;;;10.25;1.38;;;;;;;-146.64;100.00;39581.34;5061320;28;20036;-77
2021/12/02 02:00:20;;;;;;;7.93;1.13;;;;;;;-146.64;100.00;39579.28;5054123;28;20059;-77
2021/12/02 02:02:47;;;;;;;14.40;3.17;;;;;;;-146.64;100.00;39595.66;5081610;28;20123;-77
2021/12/02 02:05:14;;;;;;;;;;;;;;;-146.64;100.00;39616.13;5059195;28;20031;-77
2021/12/02 02:07:45;;;;;;;7.38;1.30;;;;;;;-146.64;100.00;39607.94;5077941;28;19958;-78
2021/12/02 02:10:11;;;;;;;7.13;1.30;;;;;;;-146.64;100.00;39618.19;5062344;28;20021;-77
2021/12/02 02:12:37;;;;;;;10.05;1.75;;;;;;;-146.64;100.00;39585.44;5071501;28;20020;-77
2021/12/02 02:15:03;;;;;;;10.60;1.57;;;;;;;-146.64;100.00;39612.03;5068652;28;20017;-78
2021/12/02 02:17:39;;;;;;;15.27;1.30;;;;;;;-146.64;100.00;39603.84;5066191;28;20387;-77
2021/12/02 02:20:08;;;;;;;9.20;1.50;;;;;;;-146.64;100.00;39636.59;5053290;28;20629;-77
2021/12/02 02:22:33;;;;;;;6.95;1.42;;;;;;;-146.64;100.00;39616.13;5056249;28;20488;-77
2021/12/02 02:25:00;;;;;;;7.18;1.73;;;;;;;-146.64;100.00;39628.41;5046489;28;20035;-76
2021/12/02 02:27:26;;;;;;;4.05;1.60;;;;;;;-146.64;100.00;39583.38;5070132;28;20440;-77
2021/12/02 02:29:51;;;;;;;4.85;1.63;;;;;;;-146.64;100.00;39636.59;5087244;28;20101;-77
2021/12/02 02:32:18;;;;;;;12.73;1.85;;;;;;;-146.64;100.00;39636.59;5079099;28;20044;-76
2021/12/02 02:34:44;;;;;;;9.40;1.98;;;;;;;-146.64;100.00;39640.69;5073608;28;20488;-77
2021/12/02 02:37:09;;;;;;;5.88;1.40;;;;;;;-146.64;100.00;39616.13;5084469;28;20037;-76
2021/12/02 02:39:36;;;;;;;16.63;1.80;;;;;;;-146.64;100.00;39597.72;5055451;28;20021;-76
2021/12/02 02:42:05;;;;;;;20.33;1.60;;;;;;;-146.64;100.00;39595.66;5059691;28;20028;-77
2021/12/02 02:44:32;;;;;;;12.68;2.30;;;;;;;-146.64;100.00;39612.03;5059282;28;20031;-76
2021/12/02 02:46:58;;;;;;;7.70;1.35;;;;;;;-146.64;100.00;39612.03;5071826;28;20028;-76
2021/12/02 02:49:23;;;;;;;6.57;1.15;;;;;;;-146.64;100.00;39591.56;5059842;28;20032;-77
2021/12/02 02:51:49;;;;;;;9.57;1.65;;;;;;;-146.64;100.00;39567.00;5067099;28;20538;-77
2021/12/02 02:54:16;;;;;;;9.30;1.50;;;;;;;-146.64;100.00;39634.56;5066318;28;20102;-77
2021/12/02 02:56:54;;;;;;;9.65;1.50;;;;;;;-146.64;100.00;39636.59;5054181;28;20052;-77
2021/12/02 03:07:38;;;;;;;5.95;0.90;;;;;;;-146.64;100.00;39644.78;5072675;28;20028;-76
2021/12/02 03:10:09;;;;;;;5.30;1.48;;;;;;;-146.64;100.00;39622.28;5070629;28;20044;-76
2021/12/02 03:12:59;;;;;;;3.30;1.02;;;;;;;-146.64;100.00;39587.47;5065068;28;20104;-76
2021/12/02 03:17:47;;;;;;;3.88;1.23;;;;;;;-146.64;100.00;39558.81;5081647;28;20036;-78
2021/12/02 03:20:12;;;;;;;5.03;1.00;;;;;;;-146.64;100.00;39538.34;5080698;28;20173;-77
2021/12/02 03:22:39;;;;;;;6.07;1.08;;;;;;;-146.64;100.00;39483.09;5064319;28;20056;-77
2021/12/02 03:25:06;;;;;;;8.30;2.08;;;;;;;-146.64;100.00;39595.66;5061015;28;20401;-77
2021/12/02 03:27:31;;;;;;;3.83;0.80;;;;;;;-146.64;100.00;39542.44;5064610;28;20353;-77
2021/12/02 03:29:57;;;;;;;5.80;1.20;;;;;;;-146.64;100.00;39583.38;5062628;28;20024;-77
2021/12/02 03:32:22;;;;;;;8.43;2.22;;;;;;;-146.64;100.00;39581.34;5081492;28;20476;-77
2021/12/02 03:34:50;;;;;;;10.52;1.33;;;;;;;-146.64;100.00;39558.81;5052586;28;20028;-77
2021/12/02 03:37:19;;;;;;;35.65;5.35;;;;;;;-146.64;100.00;39546.53;5073555;28;20137;-77
2021/12/02 03:39:45;;;;;;;4.57;1.02;;;;;;;-146.64;100.00;39513.81;5062464;28;20115;-77
2021/12/02 03:42:11;;;;;;;6.28;1.23;;;;;;;-146.64;100.00;39542.44;5066287;28;20051;-77
2021/12/02 03:44:36;;;;;;;6.85;0.77;;;;;;;-146.64;100.00;39560.88;5071919;28;20025;-78
2021/12/02 03:47:02;;;;;;;14.13;1.27;;;;;;;-146.64;100.00;39546.53;5059136;28;20499;-77
2021/12/02 03:49:28;;;;;;;7.82;1.38;;;;;;;-146.64;100.00;39538.34;5080773;28;20048;-77
2021/12/02 03:51:54;;;;;;;5.10;1.02;;;;;;;-146.64;100.00;39554.72;5069569;28;20028;-77
2021/12/02 03:54:19;;;;;;;9.02;0.93;;;;;;;-146.64;100.00;39517.91;5081517;28;20510;-78
2021/12/02 03:56:44;;;;;;;3.67;0.95;;;;;;;-146.64;100.00;39534.25;5060812;28;20019;-77
2021/12/02 03:59:10;;;;;;;4.93;0.80;;;;;;;-146.64;100.00;39534.25;5061883;28;20029;-79
2021/12/02 04:01:35;;;;;;;2.22;0.90;;;;;;;-146.64;100.00;39519.94;5054025;28;20029;-77
2021/12/02 04:04:01;;;;;;;8.05;1.10;;;;;;;-146.64;100.00;39534.25;5057674;28;20036;-77
2021/12/02 04:06:26;;;;;;;3.72;0.55;;;;;;;-146.64;100.00;39530.16;5050919;28;20028;-77
2021/12/02 04:09:11;;;;;;;6.82;1.00;;;;;;;-146.64;100.00;39575.19;5055754;28;20035;-77
2021/12/02 04:11:46;;;;;;;5.20;0.85;;;;;;;-146.64;100.00;39562.91;5058672;28;20472;-77
2021/12/02 04:16:40;;;;;;;4.53;1.02;;;;;;;-146.64;100.00;39499.47;5062250;28;20492;-77
2021/12/02 04:19:10;;;;;;;3.63;0.90;;;;;;;-146.64;100.00;39612.03;5068876;28;20029;-78
2021/12/02 04:21:35;;;;;;;6.65;0.80;;;;;;;-146.64;100.00;39636.59;5071831;28;20435;-77
2021/12/02 04:24:01;;;;;;;4.35;0.98;;;;;;;-146.64;100.00;39661.16;5058669;28;20025;-77
2021/12/02 04:26:26;;;;;;;7.25;0.75;;;;;;;-146.64;100.00;39626.38;5056709;28;20120;-78
2021/12/02 04:28:52;;;;;;;8.73;1.35;;;;;;;-146.64;100.00;39632.50;5064631;28;20105;-78
2021/12/02 04:31:18;;;;;;;6.85;1.45;;;;;;;-146.64;100.00;39593.63;5065184;28;20452;-78
2021/12/02 04:33:43;;;;;;;6.57;1.60;;;;;;;-146.64;100.00;39534.25;5068171;28;20071;-78
2021/12/02 04:36:08;;;;;;;14.73;1.48;;;;;;;-146.64;100.00;39620.22;5069014;28;20032;-78
2021/12/02 04:38:34;;;;;;;6.40;1.25;;;;;;;-146.64;100.00;39595.66;5074582;28;20017;-79
2021/12/02 04:41:00;;;;;;;4.13;1.00;;;;;;;-146.64;100.00;39644.78;5059239;28;20024;-78
2021/12/02 04:43:25;;;;;;;4.65;0.98;;;;;;;-146.64;100.00;39661.16;5078276;28;20036;-78
2021/12/02 04:45:51;;;;;;;5.05;0.95;;;;;;;-146.64;100.00;39632.50;5051203;28;20537;-78
2021/12/02 04:48:17;;;;;;;2.33;0.80;;;;;;;-146.64;100.00;39634.56;5049776;28;20024;-78
2021/12/02 04:50:43;;;;;;;11.20;1.70;;;;;;;-146.64;100.00;39669.34;5073255;28;20086;-78
2021/12/02 04:53:08;;;;;;;6.93;1.10;;;;;;;-146.64;100.00;39640.69;5072023;28;20032;-77
2021/12/02 04:55:34;;;;;;;6.80;1.17;;;;;;;-146.64;100.00;39644.78;5081160;28;20028;-77
2021/12/02 04:57:59;;;;;;;4.45;0.88;;;;;;;-146.64;100.00;39607.94;5075811;28;20453;-78
2021/12/02 05:00:25;;;;;;;6.72;1.00;;;;;;;-146.64;100.00;39638.66;5050335;28;20036;-78
2021/12/02 05:02:50;;;;;;;7.43;1.35;;;;;;;-146.64;100.00;39624.31;5072505;28;20056;-78
2021/12/02 05:05:16;;;;;;;6.55;1.13;;;;;;;-146.64;100.00;39591.56;5079727;28;20093;-77
2021/12/02 05:07:41;;;;;;;3.35;0.77;;;;;;;-146.64;100.00;39638.66;5067615;28;20385;-77
2021/12/02 05:10:07;;;;;;;6.40;0.93;;;;;;;-146.64;100.00;39607.94;5070593;28;20028;-79
2021/12/02 05:12:33;;;;;;;7.27;1.10;;;;;;;-146.64;100.00;39579.28;5078794;28;20027;-77
2021/12/02 05:14:59;;;;;;;3.35;0.82;;;;;;;-146.64;100.00;39595.66;5071572;28;20475;-77
2021/12/02 05:17:24;;;;;;;5.60;0.80;;;;;;;-146.64;100.00;39616.13;5086117;28;20020;-78
2021/12/02 05:19:49;;;;;;;7.72;1.00;;;;;;;-146.64;100.00;39638.66;5040557;28;20017;-77
2021/12/02 05:22:15;;;;;;;3.03;0.82;;;;;;;-146.64;100.00;39632.50;5074612;28;20056;-78
2021/12/02 05:24:40;;;;;;;4.35;1.02;;;;;;;-146.64;100.00;39583.38;5067573;28;20123;-77
2021/12/02 05:27:06;;;;;;;7.18;0.88;;;;;;;-146.64;100.00;39624.31;5072618;28;20479;-78
2021/12/02 05:29:32;;;;;;;5.97;1.67;;;;;;;-146.64;100.00;39642.75;5079305;28;20040;-77
2021/12/02 05:31:57;;;;;;;3.05;1.30;;;;;;;-146.64;100.00;39610.00;5057008;28;20086;-78
2021/12/02 05:34:23;;;;;;;1.85;0.88;;;;;;;-146.64;100.00;39648.88;5054101;28;20035;-78
2021/12/02 05:36:48;;;;;;;5.10;0.82;;;;;;;-146.64;100.00;39562.91;5083345;28;20038;-77
2021/12/02 05:39:13;;;;;;;3.90;1.00;;;;;;;-146.64;100.00;39501.53;5083830;28;20027;-78
2021/12/02 05:41:39;;;;;;;5.53;0.90;;;;;;;-146.64;100.00;39595.66;5060974;28;20029;-77
2021/12/02 05:44:04;;;;;;;2.50;0.82;;;;;;;-146.64;100.00;39575.19;5070256;28;20055;-77
2021/12/02 05:46:30;;;;;;;8.77;1.33;;;;;;;-146.64;100.00;39587.47;5058870;28;20029;-77
2021/12/02 05:48:55;;;;;;;8.88;1.40;;;;;;;-146.64;100.00;39550.63;5053106;28;20396;-77
2021/12/02 05:51:21;;;;;;;8.18;1.50;;;;;;;-146.64;100.00;39585.44;5080068;28;20031;-77
2021/12/02 05:53:46;;;;;;;9.55;1.23;;;;;;;-146.64;100.00;39620.22;5078891;28;20103;-77
2021/12/02 05:56:12;;;;;;;6.07;1.75;;;;;;;-146.64;100.00;39624.31;5046507;28;20024;-77
2021/12/02 05:58:37;;;;;;;4.38;1.38;;;;;;;-146.64;100.00;39620.22;5067375;28;20073;-78
2021/12/02 06:01:03;;;;;;;8.88;1.33;;;;;;;-146.64;100.00;39610.00;5060809;28;20485;-77
2021/12/02 06:03:28;;;;;;;7.57;1.38;;;;;;;-146.64;100.00;39622.28;5071613;28;20028;-78
2021/12/02 06:05:53;;;;;;;10.93;2.15;;;;;;;-146.64;100.00;39640.69;5087287;28;20035;-77
2021/12/02 06:08:19;;;;;;;7.07;1.75;;;;;;;-146.64;100.00;39642.75;5052362;28;20542;-77
2021/12/02 06:10:44;;;;;;;9.05;1.70;;;;;;;-146.64;100.00;39624.31;5066961;28;20044;-77
2021/12/02 06:13:11;;;;;;;12.02;1.80;;;;;;;-146.64;100.00;39585.44;5061082;28;20027;-77
2021/12/02 06:15:36;;;;;;;11.40;2.00;;;;;;;-146.64;100.00;39648.88;5067978;28;20352;-77
2021/12/02 06:18:02;;;;;;;12.20;1.90;;;;;;;-146.64;100.00;39595.66;5081460;28;20028;-78
2021/12/02 06:20:27;;;;;;;10.48;1.95;;;;;;;-146.64;100.00;39554.72;5071010;28;20507;-78
2021/12/02 06:22:52;;;;;;;15.00;1.80;;;;;;;-146.64;100.00;39538.34;5057308;28;20029;-77
2021/12/02 06:27:55;;;;;;;15.23;1.48;;;;;;;-146.64;100.00;39517.91;5074620;28;20037;-77
2021/12/02 06:30:22;;;;;;;8.48;1.80;;;;;;;-146.64;100.00;39552.69;5080302;28;20392;-78
2021/12/02 06:32:48;;;;;;;14.82;1.85;;;;;;;-146.64;100.00;39587.47;5088423;28;20024;-77
2021/12/02 06:35:13;;;;;;;16.30;2.00;;;;;;;-146.64;100.00;39591.56;5073641;28;20047;-77
2021/12/02 06:37:39;;;;;;;14.43;2.22;;;;;;;-146.64;100.00;39567.00;5070523;28;20031;-77
2021/12/02 06:40:06;;;;;;;12.30;1.90;;;;;;;-146.64;100.00;39538.34;5085160;28;20056;-77
2021/12/02 06:42:31;;;;;;;17.88;2.63;;;;;;;-146.64;100.00;39569.06;5060119;28;20033;-77
2021/12/02 06:44:57;;;;;;;15.90;1.55;;;;;;;-146.64;100.00;39579.28;5060729;28;20388;-77
2021/12/02 06:47:28;;;;;;;8.63;1.85;;;;;;;-146.64;100.00;39550.63;5078637;28;20035;-78
2021/12/02 06:49:53;;;;;;;6.82;1.95;;;;;;;-146.64;100.00;39558.81;5066169;28;20153;-77
2021/12/02 06:52:19;;;;;;;13.20;2.03;;;;;;;-146.64;100.00;39583.38;5063646;28;20032;-77
2021/12/02 06:54:44;;;;;;;10.15;1.70;;;;;;;-146.64;100.00;39567.00;5084051;28;20032;-77
2021/12/02 06:57:09;;;;;;;13.02;1.58;;;;;;;-146.64;100.00;39579.28;5069169;28;20048;-77
2021/12/02 06:59:35;;;;;;;12.52;1.80;;;;;;;-146.64;100.00;39593.63;5083491;28;20035;-77
2021/12/02 07:02:00;;;;;;;12.27;2.03;;;;;;;-146.64;100.00;39567.00;5071675;28;20101;-77
2021/12/02 07:04:26;;;;;;;9.10;2.17;;;;;;;-146.64;100.00;39632.50;5071053;28;20035;-77
2021/12/02 07:06:51;;;;;;;14.32;1.95;;;;;;;-146.64;100.00;39571.09;5056949;28;20028;-77
2021/12/02 07:09:17;;;;;;;15.57;2.13;;;;;;;-146.64;100.00;39622.28;5066265;28;20020;-78
2021/12/02 07:11:43;;;;;;;9.68;1.75;;;;;;;-146.64;100.00;39607.94;5064640;28;20028;-77
2021/12/02 07:14:13;;;;;;;12.68;2.78;;;;;;;-146.64;100.00;39575.19;5081416;28;20020;-77
2021/12/02 07:16:39;;;;;;;9.48;2.33;;;;;;;-146.64;100.00;39612.03;5049527;28;20155;-77
2021/12/02 07:19:05;;;;;;;7.75;1.83;;;;;;;-146.64;100.00;39579.28;5087802;28;20108;-77
2021/12/02 07:21:31;;;;;;;12.05;1.50;;;;;;;-146.64;100.00;39587.47;5059946;28;20047;-77
2021/12/02 07:23:57;;;;;;;9.25;1.50;;;;;;;-146.64;100.00;39577.25;5094283;28;20463;-77
2021/12/02 07:26:22;;;;;;;10.95;1.75;;;;;;;-146.64;100.00;39607.94;5076260;28;20394;-77
2021/12/02 07:28:48;;;;;;;9.73;1.80;;;;;;;-146.64;100.00;39517.91;5077945;28;20028;-77
2021/12/02 07:31:14;;;;;;;13.90;2.20;;;;;;;-146.64;100.00;39562.91;5069824;28;20064;-77
2021/12/02 07:33:48;;;;;;;5.88;1.90;;;;;;;-146.64;100.00;39558.81;5081584;28;20106;-77
2021/12/02 07:36:14;;;;;;;6.40;1.60;;;;;;;-146.64;100.00;39550.63;5060475;28;20027;-77
2021/12/02 07:38:39;;;;;;;6.80;1.53;;;;;;;-146.64;100.00;39607.94;5076540;28;20024;-77
2021/12/02 07:41:05;;;;;;;6.63;1.48;;;;;;;-146.64;100.00;39564.97;5091107;28;20291;-77
2021/12/02 07:43:36;;;;;;;9.25;1.48;;;;;;;-146.64;100.00;39569.06;5061159;28;20081;-77
2021/12/02 07:46:02;;;;;;;6.47;1.63;;;;;;;-146.64;100.00;39560.88;5067604;28;20460;-77
2021/12/02 07:48:28;;;;;;;8.52;2.85;;;;;;;-146.64;100.00;39581.34;5064793;28;20024;-77
2021/12/02 07:50:55;;;;;;;10.10;1.70;;;;;;;-146.64;100.00;39548.59;5061261;28;20033;-77
2021/12/02 07:53:20;;;;;;;14.05;4.18;;;;;;;-146.64;100.00;39526.09;5042962;28;20027;-77
2021/12/02 07:55:46;;;;;;;8.43;2.78;;;;;;;-146.64;100.00;39524.03;5073509;28;20123;-77
2021/12/02 07:58:11;;;;;;;8.93;2.47;;;;;;;-146.64;100.00;39507.66;5057584;28;20024;-77
2021/12/02 08:00:37;;;;;;;10.98;2.20;;;;;;;-146.64;100.00;39534.25;5077523;28;20024;-77
2021/12/02 08:03:06;;;;;;;6.95;2.25;;;;;;;-146.64;100.00;39534.25;5080887;28;20028;-77
2021/12/02 08:05:32;;;;;;;9.77;1.92;;;;;;;-146.64;100.00;39427.84;5070409;28;20092;-77
2021/12/02 08:07:57;;;;;;;7.95;1.40;;;;;;;-146.64;100.00;39530.16;5063035;28;20060;-77
2021/12/02 08:10:23;;;;;;;6.43;1.88;;;;;;;-146.64;100.00;39530.16;5067882;28;20618;-77
2021/12/02 08:12:50;;;;;;;11.80;1.63;;;;;;;-146.64;100.00;39472.88;5058427;28;20165;-77
2021/12/02 08:15:20;;;;;;;9.98;1.60;;;;;;;-146.64;100.00;39481.06;5063019;28;20119;-77
2021/12/02 08:17:46;;;;;;;7.30;1.75;;;;;;;-146.64;100.00;39485.16;5063842;28;20024;-77
2021/12/02 08:20:11;;;;;;;7.80;1.58;;;;;;;-146.64;100.00;39468.78;5051577;28;20043;-77
2021/12/02 08:22:37;;;;;;;9.18;1.63;;;;;;;-146.64;100.00;39452.41;5070312;28;20391;-77
2021/12/02 08:25:02;;;;;;;8.13;1.42;;;;;;;-146.64;100.00;39472.88;5068930;28;20151;-77
2021/12/02 08:27:28;;;;;;;3.40;0.90;;;;;;;-146.64;100.00;39440.13;5055686;28;20530;-77
2021/12/02 08:29:53;;;;;;;2.10;0.93;;;;;;;-146.64;100.00;39458.53;5038641;28;20032;-77
2021/12/02 08:32:19;;;;;;;9.63;2.03;;;;;;;-146.64;100.00;39436.03;5050747;28;20025;-80
2021/12/02 08:34:44;;;;;;;3.97;0.93;;;;;;;-146.64;100.00;39458.53;5065459;28;20025;-77
2021/12/02 08:37:11;;;;;;;5.45;1.15;;;;;;;-146.64;100.00;39464.69;5078863;28;20024;-77
2021/12/02 08:39:36;;;;;;;3.15;0.88;;;;;;;-146.64;100.00;39399.19;5081092;28;20028;-78
2021/12/02 08:42:03;;;;;;;4.25;1.10;;;;;;;-146.64;100.00;39460.59;5079141;28;20031;-77
2021/12/02 08:44:31;;;;;;;;;;;;;;;-146.64;100.00;39505.63;5072700;28;20109;-77
2021/12/02 08:46:56;;;;;;;3.00;0.98;;;;;;;-146.64;100.00;39542.44;5087729;28;19912;-78
2021/12/02 08:49:23;;;;;;;8.25;1.42;;;;;;;-146.64;100.00;39552.69;5077797;28;20496;-78
2021/12/02 08:51:49;;;;;;;5.27;1.07;;;;;;;-146.64;100.00;39487.19;5092009;28;20046;-78
2021/12/02 08:54:15;;;;;;;6.67;1.10;;;;;;;-146.64;100.00;39501.53;5074148;28;20021;-77
2021/12/02 08:56:40;;;;;;;3.30;1.05;;;;;;;-146.64;100.00;39509.72;5079006;28;20425;-78
2021/12/02 08:59:06;;;;;;;1.98;1.00;;;;;;;-146.64;100.00;39505.63;5084882;28;20035;-78
2021/12/02 09:01:33;;;;;;;5.53;1.00;;;;;;;-146.64;100.00;39513.81;5056739;28;20028;-78
2021/12/02 09:03:58;;;;;;;5.20;0.90;;;;;;;-146.64;100.00;39546.53;5070178;28;20471;-77
2021/12/02 09:06:24;;;;;;;3.10;1.25;;;;;;;-146.64;100.00;39507.66;5078034;28;20107;-77
2021/12/02 09:08:53;;;;;;;1.55;1.15;;;;;;;-146.64;100.00;39554.72;5049206;28;20025;-78
2021/12/02 09:11:19;;;;;;;6.72;1.02;;;;;;;-146.64;100.00;39548.59;5067182;28;20024;-78
2021/12/02 09:13:44;;;;;;;5.20;1.45;;;;;;;-146.64;100.00;39519.94;5051358;28;20033;-78
2021/12/02 09:16:09;;;;;;;10.40;2.08;;;;;;;-146.64;100.00;39522.00;5084425;28;20017;-78
2021/12/02 09:18:35;;;;;;;2.72;0.95;;;;;;;-146.64;100.00;39493.34;5082236;28;20028;-78
2021/12/02 09:21:00;;;;;;;3.58;1.73;;;;;;;-146.64;100.00;39470.81;5059877;28;20045;-78
2021/12/02 09:23:26;;;;;;;4.25;1.30;;;;;;;-146.64;100.00;39442.16;5070280;28;20033;-78
2021/12/02 09:25:52;;;;;;;3.53;0.98;;;;;;;-146.64;100.00;39442.16;5072423;28;20028;-78
2021/12/02 09:28:18;;;;;;;4.80;0.95;;;;;;;-146.64;100.00;39415.56;5084313;28;20040;-77
2021/12/02 09:30:44;;;;;;;4.70;1.00;;;;;;;-146.64;100.00;39431.94;5063165;28;20036;-78
2021/12/02 09:33:09;;;;;;;3.08;1.58;;;;;;;-146.64;100.00;39417.59;5061719;28;20036;-78
2021/12/02 09:35:36;;;;;;;2.47;1.13;;;;;;;-146.64;100.00;39403.28;5064449;28;20203;-78
2021/12/02 09:38:02;;;;;;;4.45;2.03;;;;;;;-146.64;100.00;39442.16;5060586;28;20028;-77
2021/12/02 09:40:28;;;;;;;5.20;1.48;;;;;;;-146.64;100.00;39431.94;5074202;28;20036;-77
2021/12/02 09:42:53;;;;;;;3.58;1.77;;;;;;;-146.64;100.00;39444.22;5062334;28;20502;-77
2021/12/02 09:45:18;;;;;;;7.05;1.60;;;;;;;-146.64;100.00;39411.47;5052928;28;20025;-77
2021/12/02 09:47:47;;;;;;;5.22;1.42;;;;;;;-146.64;100.00;39411.47;5065586;28;20059;-77
2021/12/02 09:50:18;;;;;;;5.10;1.05;;;;;;;-146.64;100.00;39360.31;5064414;28;20032;-78
2021/12/02 09:52:45;;;;;;;6.43;1.20;;;;;;;-146.64;100.00;39427.84;5062425;28;20051;-78
2021/12/02 09:57:52;;;;;;;10.43;1.35;;;;;;;-146.64;100.00;39397.13;5077332;28;20122;-77
2021/12/02 10:00:22;;;;;;;4.28;1.40;;;;;;;-146.64;100.00;39391.00;5061193;28;20037;-77
2021/12/02 10:02:58;;;;;;;6.40;1.48;;;;;;;-146.64;100.00;39378.72;5048584;28;20567;-77
2021/12/02 10:05:32;;;;;;;2.58;1.15;;;;;;;-146.64;100.00;39354.16;5054749;28;20019;-77
2021/12/02 10:08:02;;;;;;;6.47;1.15;;;;;;;-146.64;100.00;39309.13;5062513;28;22425;-77
2021/12/02 10:10:30;;;;;;;4.60;1.20;;;;;;;-146.64;100.00;39362.34;5060060;28;20033;-78
2021/12/02 10:13:14;;;;;;;4.05;1.33;;;;;;;-146.64;100.00;39309.13;5071244;28;20082;-78
2021/12/02 10:15:42;;;;;;;3.92;1.17;;;;;;;-146.64;100.00;39307.09;5044806;28;20172;-78
2021/12/02 10:18:12;;;;;;;2.97;1.00;;;;;;;-146.64;100.00;39307.09;5062861;28;20508;-78
2021/12/02 10:20:42;;;;;;;2.55;1.00;;;;;;;-146.64;100.00;39329.59;5055198;28;20045;-78
2021/12/02 10:23:25;;;;;;;1.75;0.68;;;;;;;-146.64;100.00;39360.31;5046302;28;20035;-78
2021/12/02 10:25:58;;;;;;;3.22;1.27;;;;;;;-146.64;100.00;39341.88;5057448;28;20148;-77
2021/12/02 10:28:26;;;;;;;6.80;1.40;;;;;;;-146.64;100.00;39354.16;5081294;28;20016;-78
2021/12/02 10:30:57;;;;;;;4.88;1.08;;;;;;;-146.64;100.00;39333.69;5057918;28;20033;-77
2021/12/02 10:33:38;;;;;;;3.95;1.15;;;;;;;-146.64;100.00;39317.31;5052850;28;20032;-77
2021/12/02 10:36:32;;;;;;;3.13;0.70;;;;;;;-146.64;100.00;39358.25;5062238;28;20029;-77
2021/12/02 10:39:19;;;;;;;2.25;0.80;;;;;;;-146.64;100.00;39356.22;5056823;28;20029;-77
2021/12/02 10:41:46;;;;;;;11.37;0.80;;;;;;;-146.64;100.00;39345.97;5063918;28;20105;-77
2021/12/02 10:44:28;;;;;;;3.63;1.67;;;;;;;-146.64;100.00;39393.03;5061846;28;20273;-78
2021/12/02 10:47:01;;;;;;;3.75;0.93;;;;;;;-146.64;100.00;39444.22;5056746;28;20028;-77
2021/12/02 10:49:30;;;;;;;3.45;0.70;;;;;;;-146.64;100.00;39456.50;5058724;28;20066;-77
2021/12/02 10:51:58;;;;;;;3.60;1.05;;;;;;;-146.64;100.00;39485.16;5068106;28;20039;-77
2021/12/02 10:54:31;;;;;;;1.67;0.80;;;;;;;-146.64;100.00;39419.66;5057993;28;20090;-77
2021/12/02 10:57:07;;;;;;;2.95;0.95;;;;;;;-146.64;100.00;39542.44;5064364;28;20368;-77
2021/12/02 10:59:43;;;;;;;4.35;0.70;;;;;;;-146.64;100.00;39524.03;5067803;28;20075;-77
2021/12/02 11:02:22;;;;;;;3.08;0.70;;;;;;;-146.64;100.00;39530.16;5058929;28;20112;-77
2021/12/02 11:04:54;;;;;;;1.45;0.80;;;;;;;-146.64;100.00;39517.91;5069541;28;20487;-78
2021/12/02 11:07:28;;;;;;;2.50;0.90;;;;;;;-146.64;100.00;39558.81;5071167;28;20016;-78
2021/12/02 11:09:55;;;;;;;3.15;1.08;;;;;;;-146.64;100.00;39530.16;5050110;28;20112;-78
2021/12/02 11:12:28;;;;;;;2.92;0.70;;;;;;;-146.64;100.00;39583.38;5052340;28;20036;-77
2021/12/02 11:15:06;;;;;;;3.20;0.90;;;;;;;-146.64;100.00;39571.09;5057592;28;20040;-78
2021/12/02 11:17:34;;;;;;;2.55;1.13;;;;;;;-146.64;100.00;39552.69;5085966;28;20394;-77
2021/12/02 11:20:03;;;;;;;3.45;0.80;;;;;;;-146.64;100.00;39585.44;5067733;28;20053;-77
2021/12/02 11:22:29;;;;;;;1.80;0.90;;;;;;;-146.64;100.00;39624.31;5052038;28;20037;-77
2021/12/02 11:24:54;;;;;;;3.42;0.80;;;;;;;-146.64;100.00;39575.19;5058612;28;20079;-77
2021/12/02 11:27:25;;;;;;;3.25;1.00;;;;;;;-146.64;100.00;39650.94;5068943;28;20032;-78
2021/12/02 11:30:15;;;;;;;1.90;0.80;;;;;;;-146.64;100.00;39648.88;5066806;28;20032;-78
2021/12/02 11:32:44;;;;;;;1.52;0.77;;;;;;;-146.64;100.00;39657.06;5062108;28;20039;-78